sensor_id;sensor_type;location;lat;lon;timestamp;P1;durP1;ratioP1;P2;durP2;ratioP2
12114;SDS011;6121;49.810;6.418;2023-01-01T00:01:21;584.15;;;533.60;;
12114;SDS011;6121;49.810;6.418;2023-01-01T00:03:54;612.87;;;561.83;;
12114;SDS011;6121;49.810;6.418;2023-01-01T00:06:21;597.97;;;547.63;;
12114;SDS011;6121;49.810;6.418;2023-01-01T00:08:47;616.25;;;565.17;;
12114;SDS011;6121;49.810;6.418;2023-01-01T00:11:13;564.08;;;514.22;;
12114;SDS011;6121;49.810;6.418;2023-01-01T00:13:40;564.63;;;515.15;;
12114;SDS011;6121;49.810;6.418;2023-01-01T00:16:07;562.78;;;512.55;;
12114;SDS011;6121;49.810;6.418;2023-01-01T00:18:37;556.28;;;507.23;;
12114;SDS011;6121;49.810;6.418;2023-01-01T00:21:08;550.47;;;501.55;;
12114;SDS011;6121;49.810;6.418;2023-01-01T00:23:37;515.80;;;466.67;;
12114;SDS011;6121;49.810;6.418;2023-01-01T00:26:09;517.38;;;468.60;;
12114;SDS011;6121;49.810;6.418;2023-01-01T00:28:36;518.15;;;470.50;;
12114;SDS011;6121;49.810;6.418;2023-01-01T00:31:06;523.50;;;474.90;;
12114;SDS011;6121;49.810;6.418;2023-01-01T00:33:35;551.30;;;501.70;;
12114;SDS011;6121;49.810;6.418;2023-01-01T00:36:14;560.47;;;510.33;;
12114;SDS011;6121;49.810;6.418;2023-01-01T00:38:41;553.05;;;504.90;;
12114;SDS011;6121;49.810;6.418;2023-01-01T00:41:07;670.38;;;618.25;;
12114;SDS011;6121;49.810;6.418;2023-01-01T00:43:33;658.63;;;606.05;;
12114;SDS011;6121;49.810;6.418;2023-01-01T00:45:59;665.40;;;613.13;;
12114;SDS011;6121;49.810;6.418;2023-01-01T00:48:25;614.92;;;565.05;;
12114;SDS011;6121;49.810;6.418;2023-01-01T00:50:51;647.47;;;596.47;;
12114;SDS011;6121;49.810;6.418;2023-01-01T00:53:17;654.53;;;602.70;;
12114;SDS011;6121;49.810;6.418;2023-01-01T00:55:43;660.47;;;608.25;;
12114;SDS011;6121;49.810;6.418;2023-01-01T00:58:09;650.63;;;599.10;;
12114;SDS011;6121;49.810;6.418;2023-01-01T01:00:35;603.70;;;553.63;;
12114;SDS011;6121;49.810;6.418;2023-01-01T01:03:02;534.92;;;485.60;;
12114;SDS011;6121;49.810;6.418;2023-01-01T01:05:28;544.47;;;496.20;;
12114;SDS011;6121;49.810;6.418;2023-01-01T01:07:54;537.25;;;488.65;;
12114;SDS011;6121;49.810;6.418;2023-01-01T01:10:19;533.97;;;485.70;;
12114;SDS011;6121;49.810;6.418;2023-01-01T01:12:46;560.33;;;509.38;;
12114;SDS011;6121;49.810;6.418;2023-01-01T01:15:12;578.10;;;528.33;;
12114;SDS011;6121;49.810;6.418;2023-01-01T01:17:39;657.35;;;606.00;;
12114;SDS011;6121;49.810;6.418;2023-01-01T01:20:05;652.20;;;599.92;;
12114;SDS011;6121;49.810;6.418;2023-01-01T01:22:32;662.28;;;610.42;;
12114;SDS011;6121;49.810;6.418;2023-01-01T01:24:58;646.30;;;594.75;;
12114;SDS011;6121;49.810;6.418;2023-01-01T01:27:24;548.03;;;499.73;;
12114;SDS011;6121;49.810;6.418;2023-01-01T01:29:50;557.22;;;508.40;;
12114;SDS011;6121;49.810;6.418;2023-01-01T01:32:16;567.17;;;517.33;;
12114;SDS011;6121;49.810;6.418;2023-01-01T01:34:42;555.70;;;506.42;;
12114;SDS011;6121;49.810;6.418;2023-01-01T01:37:07;538.10;;;489.40;;
12114;SDS011;6121;49.810;6.418;2023-01-01T01:39:33;543.95;;;495.27;;
12114;SDS011;6121;49.810;6.418;2023-01-01T01:41:59;540.78;;;489.45;;
12114;SDS011;6121;49.810;6.418;2023-01-01T01:50:34;565.88;;;516.30;;
12114;SDS011;6121;49.810;6.418;2023-01-01T01:53:08;553.35;;;502.63;;
12114;SDS011;6121;49.810;6.418;2023-01-01T01:55:40;525.70;;;477.70;;
12114;SDS011;6121;49.810;6.418;2023-01-01T01:58:10;534.25;;;485.70;;
12114;SDS011;6121;49.810;6.418;2023-01-01T02:00:37;558.83;;;510.35;;
12114;SDS011;6121;49.810;6.418;2023-01-01T02:03:11;557.47;;;506.90;;
12114;SDS011;6121;49.810;6.418;2023-01-01T02:05:42;544.72;;;496.08;;
12114;SDS011;6121;49.810;6.418;2023-01-01T02:08:09;542.40;;;493.33;;
12114;SDS011;6121;49.810;6.418;2023-01-01T02:10:36;532.58;;;484.67;;
12114;SDS011;6121;49.810;6.418;2023-01-01T02:13:02;625.35;;;574.17;;
12114;SDS011;6121;49.810;6.418;2023-01-01T02:15:29;603.45;;;553.53;;
12114;SDS011;6121;49.810;6.418;2023-01-01T02:18:20;585.03;;;535.55;;
12114;SDS011;6121;49.810;6.418;2023-01-01T02:21:04;600.55;;;550.90;;
12114;SDS011;6121;49.810;6.418;2023-01-01T02:23:43;605.33;;;554.20;;
12114;SDS011;6121;49.810;6.418;2023-01-01T02:31:47;607.10;;;555.53;;
12114;SDS011;6121;49.810;6.418;2023-01-01T02:34:22;605.30;;;554.87;;
12114;SDS011;6121;49.810;6.418;2023-01-01T02:36:51;547.80;;;498.33;;
12114;SDS011;6121;49.810;6.418;2023-01-01T02:39:20;498.27;;;451.00;;
12114;SDS011;6121;49.810;6.418;2023-01-01T02:41:51;514.25;;;464.45;;
12114;SDS011;6121;49.810;6.418;2023-01-01T02:44:19;482.75;;;435.65;;
12114;SDS011;6121;49.810;6.418;2023-01-01T02:46:48;480.42;;;432.45;;
12114;SDS011;6121;49.810;6.418;2023-01-01T02:49:14;483.50;;;436.13;;
12114;SDS011;6121;49.810;6.418;2023-01-01T02:51:56;479.27;;;431.03;;
12114;SDS011;6121;49.810;6.418;2023-01-01T02:54:26;468.20;;;421.55;;
12114;SDS011;6121;49.810;6.418;2023-01-01T03:02:24;474.67;;;426.48;;
12114;SDS011;6121;49.810;6.418;2023-01-01T03:13:30;505.13;;;456.37;;
12114;SDS011;6121;49.810;6.418;2023-01-01T03:19:21;505.75;;;456.90;;
12114;SDS011;6121;49.810;6.418;2023-01-01T03:22:06;507.65;;;457.45;;
12114;SDS011;6121;49.810;6.418;2023-01-01T03:24:40;498.00;;;450.30;;
12114;SDS011;6121;49.810;6.418;2023-01-01T03:27:14;496.30;;;448.42;;
12114;SDS011;6121;49.810;6.418;2023-01-01T03:29:41;501.23;;;453.45;;
12114;SDS011;6121;49.810;6.418;2023-01-01T03:32:10;532.03;;;481.50;;
12114;SDS011;6121;49.810;6.418;2023-01-01T03:34:42;502.98;;;455.08;;
12114;SDS011;6121;49.810;6.418;2023-01-01T03:37:12;517.78;;;469.20;;
12114;SDS011;6121;49.810;6.418;2023-01-01T03:39:43;509.38;;;461.55;;
12114;SDS011;6121;49.810;6.418;2023-01-01T03:42:21;534.20;;;483.90;;
12114;SDS011;6121;49.810;6.418;2023-01-01T03:45:09;528.20;;;479.67;;
12114;SDS011;6121;49.810;6.418;2023-01-01T03:47:43;540.67;;;491.27;;
12114;SDS011;6121;49.810;6.418;2023-01-01T03:50:09;510.65;;;462.95;;
12114;SDS011;6121;49.810;6.418;2023-01-01T03:55:08;516.00;;;468.20;;
12114;SDS011;6121;49.810;6.418;2023-01-01T03:57:44;507.38;;;459.48;;
12114;SDS011;6121;49.810;6.418;2023-01-01T04:00:24;540.28;;;491.60;;
12114;SDS011;6121;49.810;6.418;2023-01-01T04:02:55;549.53;;;498.67;;
12114;SDS011;6121;49.810;6.418;2023-01-01T04:05:24;524.78;;;476.15;;
12114;SDS011;6121;49.810;6.418;2023-01-01T04:07:52;550.22;;;500.50;;
12114;SDS011;6121;49.810;6.418;2023-01-01T04:10:18;556.17;;;507.20;;
12114;SDS011;6121;49.810;6.418;2023-01-01T04:12:45;567.03;;;517.13;;
12114;SDS011;6121;49.810;6.418;2023-01-01T04:15:14;558.20;;;508.87;;
12114;SDS011;6121;49.810;6.418;2023-01-01T04:17:41;588.77;;;538.50;;
12114;SDS011;6121;49.810;6.418;2023-01-01T04:20:06;654.27;;;601.47;;
12114;SDS011;6121;49.810;6.418;2023-01-01T04:22:33;613.15;;;561.30;;
12114;SDS011;6121;49.810;6.418;2023-01-01T04:24:59;649.42;;;597.75;;
12114;SDS011;6121;49.810;6.418;2023-01-01T04:27:24;619.78;;;568.80;;
12114;SDS011;6121;49.810;6.418;2023-01-01T04:29:50;603.72;;;553.00;;
12114;SDS011;6121;49.810;6.418;2023-01-01T04:32:15;627.65;;;574.72;;
12114;SDS011;6121;49.810;6.418;2023-01-01T04:34:41;565.53;;;515.80;;
12114;SDS011;6121;49.810;6.418;2023-01-01T04:37:07;569.47;;;519.47;;
12114;SDS011;6121;49.810;6.418;2023-01-01T04:39:32;614.55;;;563.28;;
12114;SDS011;6121;49.810;6.418;2023-01-01T04:41:58;637.20;;;582.37;;
12114;SDS011;6121;49.810;6.418;2023-01-01T04:44:24;572.67;;;523.17;;
12114;SDS011;6121;49.810;6.418;2023-01-01T04:46:49;531.60;;;482.87;;
12114;SDS011;6121;49.810;6.418;2023-01-01T04:49:15;541.00;;;491.77;;
12114;SDS011;6121;49.810;6.418;2023-01-01T04:51:40;550.07;;;498.90;;
12114;SDS011;6121;49.810;6.418;2023-01-01T04:54:06;536.90;;;488.20;;
12114;SDS011;6121;49.810;6.418;2023-01-01T04:56:32;544.85;;;496.00;;
12114;SDS011;6121;49.810;6.418;2023-01-01T04:58:58;565.53;;;515.55;;
12114;SDS011;6121;49.810;6.418;2023-01-01T05:01:25;550.92;;;500.60;;
12114;SDS011;6121;49.810;6.418;2023-01-01T05:03:51;594.92;;;543.28;;
12114;SDS011;6121;49.810;6.418;2023-01-01T05:06:17;561.20;;;512.33;;
12114;SDS011;6121;49.810;6.418;2023-01-01T05:08:44;552.22;;;503.35;;
12114;SDS011;6121;49.810;6.418;2023-01-01T05:13:41;532.60;;;483.02;;
12114;SDS011;6121;49.810;6.418;2023-01-01T05:16:09;562.38;;;512.95;;
12114;SDS011;6121;49.810;6.418;2023-01-01T05:18:37;545.55;;;496.67;;
12114;SDS011;6121;49.810;6.418;2023-01-01T05:21:05;520.10;;;471.55;;
12114;SDS011;6121;49.810;6.418;2023-01-01T05:23:32;544.33;;;495.25;;
12114;SDS011;6121;49.810;6.418;2023-01-01T05:25:58;640.40;;;588.87;;
12114;SDS011;6121;49.810;6.418;2023-01-01T05:28:24;628.43;;;577.03;;
12114;SDS011;6121;49.810;6.418;2023-01-01T05:30:50;607.72;;;557.53;;
12114;SDS011;6121;49.810;6.418;2023-01-01T05:33:17;585.83;;;534.50;;
12114;SDS011;6121;49.810;6.418;2023-01-01T05:35:43;632.88;;;580.47;;
12114;SDS011;6121;49.810;6.418;2023-01-01T05:38:09;588.30;;;537.60;;
12114;SDS011;6121;49.810;6.418;2023-01-01T05:40:36;613.05;;;562.95;;
12114;SDS011;6121;49.810;6.418;2023-01-01T05:43:04;608.08;;;556.10;;
12114;SDS011;6121;49.810;6.418;2023-01-01T05:45:31;615.38;;;563.47;;
12114;SDS011;6121;49.810;6.418;2023-01-01T05:47:56;607.30;;;556.50;;
12114;SDS011;6121;49.810;6.418;2023-01-01T05:50:22;569.10;;;520.27;;
12114;SDS011;6121;49.810;6.418;2023-01-01T05:52:47;575.40;;;525.43;;
12114;SDS011;6121;49.810;6.418;2023-01-01T05:55:13;596.37;;;545.87;;
12114;SDS011;6121;49.810;6.418;2023-01-01T05:57:38;588.23;;;538.43;;
12114;SDS011;6121;49.810;6.418;2023-01-01T06:00:04;605.90;;;555.27;;
12114;SDS011;6121;49.810;6.418;2023-01-01T06:02:30;591.92;;;541.72;;
12114;SDS011;6121;49.810;6.418;2023-01-01T06:04:56;634.60;;;582.80;;
12114;SDS011;6121;49.810;6.418;2023-01-01T06:07:22;614.60;;;563.85;;
12114;SDS011;6121;49.810;6.418;2023-01-01T06:09:47;625.78;;;574.13;;
12114;SDS011;6121;49.810;6.418;2023-01-01T06:12:13;599.83;;;547.60;;
12114;SDS011;6121;49.810;6.418;2023-01-01T06:14:39;607.08;;;555.78;;
12114;SDS011;6121;49.810;6.418;2023-01-01T06:17:04;577.78;;;528.17;;
12114;SDS011;6121;49.810;6.418;2023-01-01T06:19:30;624.53;;;573.83;;
12114;SDS011;6121;49.810;6.418;2023-01-01T06:21:55;607.70;;;555.00;;
12114;SDS011;6121;49.810;6.418;2023-01-01T06:24:21;610.25;;;559.08;;
12114;SDS011;6121;49.810;6.418;2023-01-01T06:26:46;624.88;;;574.25;;
12114;SDS011;6121;49.810;6.418;2023-01-01T06:29:12;609.65;;;559.60;;
12114;SDS011;6121;49.810;6.418;2023-01-01T06:31:38;647.63;;;594.90;;
12114;SDS011;6121;49.810;6.418;2023-01-01T06:34:03;638.92;;;586.63;;
12114;SDS011;6121;49.810;6.418;2023-01-01T06:36:29;615.42;;;564.45;;
12114;SDS011;6121;49.810;6.418;2023-01-01T06:38:55;616.03;;;565.13;;
12114;SDS011;6121;49.810;6.418;2023-01-01T06:41:25;619.00;;;567.58;;
12114;SDS011;6121;49.810;6.418;2023-01-01T06:43:53;639.08;;;586.42;;
12114;SDS011;6121;49.810;6.418;2023-01-01T06:48:48;652.20;;;600.53;;
12114;SDS011;6121;49.810;6.418;2023-01-01T06:51:18;651.55;;;599.85;;
12114;SDS011;6121;49.810;6.418;2023-01-01T06:53:45;654.55;;;602.28;;
12114;SDS011;6121;49.810;6.418;2023-01-01T06:56:12;689.95;;;637.05;;
12114;SDS011;6121;49.810;6.418;2023-01-01T06:58:38;695.72;;;642.88;;
12114;SDS011;6121;49.810;6.418;2023-01-01T07:01:04;685.97;;;633.25;;
12114;SDS011;6121;49.810;6.418;2023-01-01T07:03:41;695.15;;;640.90;;
12114;SDS011;6121;49.810;6.418;2023-01-01T07:06:08;679.65;;;626.80;;
12114;SDS011;6121;49.810;6.418;2023-01-01T07:08:34;676.15;;;624.03;;
12114;SDS011;6121;49.810;6.418;2023-01-01T07:11:00;697.35;;;643.90;;
12114;SDS011;6121;49.810;6.418;2023-01-01T07:13:27;709.88;;;655.55;;
12114;SDS011;6121;49.810;6.418;2023-01-01T07:15:54;698.00;;;644.40;;
12114;SDS011;6121;49.810;6.418;2023-01-01T07:18:20;665.83;;;613.17;;
12114;SDS011;6121;49.810;6.418;2023-01-01T07:20:57;682.88;;;630.85;;
12114;SDS011;6121;49.810;6.418;2023-01-01T07:23:24;694.63;;;641.53;;
12114;SDS011;6121;49.810;6.418;2023-01-01T07:25:52;695.53;;;641.78;;
12114;SDS011;6121;49.810;6.418;2023-01-01T07:28:19;688.97;;;636.20;;
12114;SDS011;6121;49.810;6.418;2023-01-01T07:30:45;655.60;;;604.55;;
12114;SDS011;6121;49.810;6.418;2023-01-01T07:33:12;637.58;;;585.00;;
12114;SDS011;6121;49.810;6.418;2023-01-01T07:35:42;602.55;;;552.17;;
12114;SDS011;6121;49.810;6.418;2023-01-01T07:38:11;610.13;;;560.00;;
12114;SDS011;6121;49.810;6.418;2023-01-01T07:40:38;537.70;;;489.35;;
12114;SDS011;6121;49.810;6.418;2023-01-01T07:43:04;522.17;;;472.17;;
12114;SDS011;6121;49.810;6.418;2023-01-01T07:45:30;523.97;;;474.83;;
12114;SDS011;6121;49.810;6.418;2023-01-01T07:47:56;481.05;;;433.95;;
12114;SDS011;6121;49.810;6.418;2023-01-01T07:50:24;493.10;;;445.48;;
12114;SDS011;6121;49.810;6.418;2023-01-01T07:52:51;523.20;;;473.70;;
12114;SDS011;6121;49.810;6.418;2023-01-01T07:55:17;522.95;;;473.88;;
12114;SDS011;6121;49.810;6.418;2023-01-01T07:57:44;494.67;;;446.70;;
12114;SDS011;6121;49.810;6.418;2023-01-01T08:00:11;526.47;;;478.27;;
12114;SDS011;6121;49.810;6.418;2023-01-01T08:02:39;523.13;;;473.97;;
12114;SDS011;6121;49.810;6.418;2023-01-01T08:05:04;522.00;;;473.55;;
12114;SDS011;6121;49.810;6.418;2023-01-01T08:07:30;516.53;;;469.20;;
12114;SDS011;6121;49.810;6.418;2023-01-01T08:09:56;502.90;;;454.98;;
12114;SDS011;6121;49.810;6.418;2023-01-01T08:12:22;493.45;;;444.65;;
12114;SDS011;6121;49.810;6.418;2023-01-01T08:14:48;485.23;;;437.98;;
12114;SDS011;6121;49.810;6.418;2023-01-01T08:17:14;527.93;;;478.27;;
12114;SDS011;6121;49.810;6.418;2023-01-01T08:19:39;506.27;;;458.70;;
12114;SDS011;6121;49.810;6.418;2023-01-01T08:22:05;510.60;;;459.63;;
12114;SDS011;6121;49.810;6.418;2023-01-01T08:24:30;485.53;;;438.07;;
12114;SDS011;6121;49.810;6.418;2023-01-01T08:26:56;509.40;;;460.93;;
12114;SDS011;6121;49.810;6.418;2023-01-01T08:29:22;479.63;;;432.70;;
12114;SDS011;6121;49.810;6.418;2023-01-01T08:31:47;488.50;;;440.13;;
12114;SDS011;6121;49.810;6.418;2023-01-01T08:34:13;473.23;;;426.57;;
12114;SDS011;6121;49.810;6.418;2023-01-01T08:36:38;477.73;;;430.90;;
12114;SDS011;6121;49.810;6.418;2023-01-01T08:39:07;496.00;;;447.50;;
12114;SDS011;6121;49.810;6.418;2023-01-01T08:41:33;501.33;;;452.60;;
12114;SDS011;6121;49.810;6.418;2023-01-01T08:43:59;498.33;;;449.88;;
12114;SDS011;6121;49.810;6.418;2023-01-01T08:46:24;479.13;;;432.48;;
12114;SDS011;6121;49.810;6.418;2023-01-01T08:48:50;485.58;;;438.27;;
12114;SDS011;6121;49.810;6.418;2023-01-01T08:51:16;491.43;;;443.57;;
12114;SDS011;6121;49.810;6.418;2023-01-01T08:53:42;466.20;;;418.63;;
12114;SDS011;6121;49.810;6.418;2023-01-01T08:56:08;478.50;;;430.70;;
12114;SDS011;6121;49.810;6.418;2023-01-01T08:58:35;496.17;;;448.15;;
12114;SDS011;6121;49.810;6.418;2023-01-01T09:01:03;473.33;;;426.45;;
12114;SDS011;6121;49.810;6.418;2023-01-01T09:03:29;466.13;;;418.58;;
12114;SDS011;6121;49.810;6.418;2023-01-01T09:05:55;485.60;;;437.67;;
12114;SDS011;6121;49.810;6.418;2023-01-01T09:08:21;483.45;;;436.58;;
12114;SDS011;6121;49.810;6.418;2023-01-01T09:10:47;489.55;;;443.02;;
12114;SDS011;6121;49.810;6.418;2023-01-01T09:13:19;499.95;;;451.30;;
12114;SDS011;6121;49.810;6.418;2023-01-01T09:15:45;469.65;;;422.20;;
12114;SDS011;6121;49.810;6.418;2023-01-01T09:18:11;475.50;;;428.38;;
12114;SDS011;6121;49.810;6.418;2023-01-01T09:20:37;496.42;;;449.08;;
12114;SDS011;6121;49.810;6.418;2023-01-01T09:23:03;509.30;;;459.50;;
12114;SDS011;6121;49.810;6.418;2023-01-01T09:25:30;483.88;;;437.20;;
12114;SDS011;6121;49.810;6.418;2023-01-01T09:27:56;490.52;;;443.20;;
12114;SDS011;6121;49.810;6.418;2023-01-01T09:30:23;495.40;;;448.08;;
12114;SDS011;6121;49.810;6.418;2023-01-01T09:32:48;495.20;;;446.80;;
12114;SDS011;6121;49.810;6.418;2023-01-01T09:35:14;469.63;;;422.80;;
12114;SDS011;6121;49.810;6.418;2023-01-01T09:37:40;498.43;;;450.50;;
12114;SDS011;6121;49.810;6.418;2023-01-01T09:40:06;478.23;;;430.87;;
12114;SDS011;6121;49.810;6.418;2023-01-01T09:42:41;500.42;;;451.65;;
12114;SDS011;6121;49.810;6.418;2023-01-01T09:45:18;497.30;;;449.27;;
12114;SDS011;6121;49.810;6.418;2023-01-01T09:48:12;489.20;;;440.77;;
12114;SDS011;6121;49.810;6.418;2023-01-01T09:50:41;488.02;;;441.35;;
12114;SDS011;6121;49.810;6.418;2023-01-01T09:53:14;515.13;;;466.47;;
12114;SDS011;6121;49.810;6.418;2023-01-01T09:55:57;470.92;;;423.63;;
12114;SDS011;6121;49.810;6.418;2023-01-01T09:58:42;500.63;;;453.65;;
12114;SDS011;6121;49.810;6.418;2023-01-01T10:01:11;511.90;;;463.60;;
12114;SDS011;6121;49.810;6.418;2023-01-01T10:06:26;520.97;;;473.05;;
12114;SDS011;6121;49.810;6.418;2023-01-01T10:09:06;509.27;;;461.75;;
12114;SDS011;6121;49.810;6.418;2023-01-01T10:11:52;516.00;;;466.98;;
12114;SDS011;6121;49.810;6.418;2023-01-01T10:14:31;514.45;;;466.15;;
12114;SDS011;6121;49.810;6.418;2023-01-01T10:16:58;514.90;;;466.33;;
12114;SDS011;6121;49.810;6.418;2023-01-01T10:22:11;29.43;;;22.70;;
12114;SDS011;6121;49.810;6.418;2023-01-01T10:24:45;16.08;;;13.25;;
12114;SDS011;6121;49.810;6.418;2023-01-01T10:27:29;22.30;;;16.98;;
12114;SDS011;6121;49.810;6.418;2023-01-01T10:30:23;19.77;;;16.37;;
12114;SDS011;6121;49.810;6.418;2023-01-01T10:32:53;32.53;;;28.73;;
12114;SDS011;6121;49.810;6.418;2023-01-01T10:35:20;98.80;;;92.40;;
12114;SDS011;6121;49.810;6.418;2023-01-01T10:37:55;24.67;;;19.70;;
12114;SDS011;6121;49.810;6.418;2023-01-01T10:40:25;457.33;;;409.60;;
12114;SDS011;6121;49.810;6.418;2023-01-01T10:42:53;495.40;;;445.30;;
12114;SDS011;6121;49.810;6.418;2023-01-01T10:45:33;466.58;;;419.10;;
12114;SDS011;6121;49.810;6.418;2023-01-01T10:48:14;452.42;;;405.58;;
12114;SDS011;6121;49.810;6.418;2023-01-01T10:53:23;459.95;;;412.25;;
12114;SDS011;6121;49.810;6.418;2023-01-01T10:55:59;458.85;;;410.95;;
12114;SDS011;6121;49.810;6.418;2023-01-01T10:58:33;439.50;;;392.90;;
12114;SDS011;6121;49.810;6.418;2023-01-01T11:01:02;425.90;;;379.60;;
12114;SDS011;6121;49.810;6.418;2023-01-01T11:03:29;431.10;;;384.07;;
12114;SDS011;6121;49.810;6.418;2023-01-01T11:05:59;342.77;;;306.15;;
12114;SDS011;6121;49.810;6.418;2023-01-01T11:08:39;416.83;;;371.70;;
12114;SDS011;6121;49.810;6.418;2023-01-01T11:11:17;416.55;;;370.80;;
12114;SDS011;6121;49.810;6.418;2023-01-01T11:13:49;424.73;;;378.00;;
12114;SDS011;6121;49.810;6.418;2023-01-01T11:16:16;430.63;;;383.70;;
12114;SDS011;6121;49.810;6.418;2023-01-01T11:18:41;428.77;;;382.23;;
12114;SDS011;6121;49.810;6.418;2023-01-01T11:21:07;427.33;;;380.93;;
12114;SDS011;6121;49.810;6.418;2023-01-01T11:23:37;442.13;;;394.63;;
12114;SDS011;6121;49.810;6.418;2023-01-01T11:28:30;440.03;;;393.73;;
12114;SDS011;6121;49.810;6.418;2023-01-01T11:41:51;472.02;;;421.67;;
12114;SDS011;6121;49.810;6.418;2023-01-01T11:44:24;438.70;;;391.05;;
12114;SDS011;6121;49.810;6.418;2023-01-01T11:46:59;467.73;;;418.90;;
12114;SDS011;6121;49.810;6.418;2023-01-01T11:49:26;452.50;;;405.23;;
12114;SDS011;6121;49.810;6.418;2023-01-01T11:51:54;454.67;;;404.52;;
12114;SDS011;6121;49.810;6.418;2023-01-01T11:56:58;429.40;;;382.90;;
12114;SDS011;6121;49.810;6.418;2023-01-01T11:59:38;84.75;;;79.38;;
12114;SDS011;6121;49.810;6.418;2023-01-01T12:02:36;446.40;;;399.05;;
12114;SDS011;6121;49.810;6.418;2023-01-01T12:05:12;434.13;;;387.77;;
12114;SDS011;6121;49.810;6.418;2023-01-01T12:07:46;429.85;;;383.08;;
12114;SDS011;6121;49.810;6.418;2023-01-01T12:10:23;422.10;;;375.77;;
12114;SDS011;6121;49.810;6.418;2023-01-01T12:12:52;417.57;;;371.47;;
12114;SDS011;6121;49.810;6.418;2023-01-01T12:15:56;425.95;;;379.33;;
12114;SDS011;6121;49.810;6.418;2023-01-01T12:18:38;431.40;;;385.40;;
12114;SDS011;6121;49.810;6.418;2023-01-01T12:23:44;441.75;;;393.55;;
12114;SDS011;6121;49.810;6.418;2023-01-01T12:26:14;432.42;;;385.50;;
12114;SDS011;6121;49.810;6.418;2023-01-01T12:34:39;452.45;;;404.27;;
12114;SDS011;6121;49.810;6.418;2023-01-01T12:39:47;432.97;;;386.97;;
12114;SDS011;6121;49.810;6.418;2023-01-01T12:45:40;448.85;;;401.35;;
12114;SDS011;6121;49.810;6.418;2023-01-01T12:51:35;306.40;;;291.27;;
12114;SDS011;6121;49.810;6.418;2023-01-01T12:57:13;24.53;;;19.00;;
12114;SDS011;6121;49.810;6.418;2023-01-01T12:59:47;25.37;;;20.83;;
12114;SDS011;6121;49.810;6.418;2023-01-01T13:04:46;528.25;;;502.40;;
12114;SDS011;6121;49.810;6.418;2023-01-01T13:07:25;788.10;;;740.70;;
12114;SDS011;6121;49.810;6.418;2023-01-01T13:09:55;28.10;;;25.27;;
12114;SDS011;6121;49.810;6.418;2023-01-01T13:12:24;316.35;;;300.35;;
12114;SDS011;6121;49.810;6.418;2023-01-01T13:14:50;524.03;;;497.40;;
12114;SDS011;6121;49.810;6.418;2023-01-01T13:17:23;67.90;;;61.58;;
12114;SDS011;6121;49.810;6.418;2023-01-01T13:20:32;182.32;;;173.10;;
12114;SDS011;6121;49.810;6.418;2023-01-01T13:22:40;329.80;;;313.70;;
12114;SDS011;6121;49.810;6.418;2023-01-01T13:43:51;486.05;;;436.55;;
12114;SDS011;6121;49.810;6.418;2023-01-01T13:46:23;477.37;;;428.30;;
12114;SDS011;6121;49.810;6.418;2023-01-01T13:49:15;454.70;;;407.33;;
12114;SDS011;6121;49.810;6.418;2023-01-01T13:51:55;465.92;;;416.50;;
12114;SDS011;6121;49.810;6.418;2023-01-01T14:02:29;357.58;;;340.85;;
12114;SDS011;6121;49.810;6.418;2023-01-01T14:05:05;633.58;;;600.85;;
12114;SDS011;6121;49.810;6.418;2023-01-01T14:07:41;69.35;;;64.03;;
12114;SDS011;6121;49.810;6.418;2023-01-01T14:12:41;619.33;;;585.53;;
12114;SDS011;6121;49.810;6.418;2023-01-01T14:15:14;739.90;;;691.67;;
12114;SDS011;6121;49.810;6.418;2023-01-01T14:17:48;504.27;;;455.97;;
12114;SDS011;6121;49.810;6.418;2023-01-01T14:20:16;482.70;;;435.67;;
12114;SDS011;6121;49.810;6.418;2023-01-01T14:22:46;477.08;;;427.45;;
12114;SDS011;6121;49.810;6.418;2023-01-01T14:25:35;467.13;;;419.08;;
12114;SDS011;6121;49.810;6.418;2023-01-01T14:28:00;483.45;;;435.45;;
12114;SDS011;6121;49.810;6.418;2023-01-01T14:30:26;466.70;;;418.95;;
12114;SDS011;6121;49.810;6.418;2023-01-01T14:32:59;473.55;;;425.27;;
12114;SDS011;6121;49.810;6.418;2023-01-01T14:35:26;480.05;;;431.40;;
12114;SDS011;6121;49.810;6.418;2023-01-01T14:37:53;463.88;;;416.30;;
12114;SDS011;6121;49.810;6.418;2023-01-01T14:40:26;452.83;;;405.35;;
12114;SDS011;6121;49.810;6.418;2023-01-01T14:42:57;462.83;;;414.98;;
12114;SDS011;6121;49.810;6.418;2023-01-01T14:45:28;462.25;;;414.23;;
12114;SDS011;6121;49.810;6.418;2023-01-01T14:47:56;469.33;;;421.92;;
12114;SDS011;6121;49.810;6.418;2023-01-01T14:50:23;482.15;;;434.50;;
12114;SDS011;6121;49.810;6.418;2023-01-01T14:52:56;476.80;;;429.13;;
12114;SDS011;6121;49.810;6.418;2023-01-01T14:55:30;486.13;;;438.35;;
12114;SDS011;6121;49.810;6.418;2023-01-01T14:58:04;479.88;;;432.70;;
12114;SDS011;6121;49.810;6.418;2023-01-01T15:00:30;492.40;;;444.30;;
12114;SDS011;6121;49.810;6.418;2023-01-01T15:03:05;491.55;;;442.50;;
12114;SDS011;6121;49.810;6.418;2023-01-01T15:05:36;483.48;;;435.65;;
12114;SDS011;6121;49.810;6.418;2023-01-01T15:08:03;480.92;;;432.48;;
12114;SDS011;6121;49.810;6.418;2023-01-01T15:10:31;472.08;;;423.90;;
12114;SDS011;6121;49.810;6.418;2023-01-01T15:12:59;503.23;;;453.63;;
12114;SDS011;6121;49.810;6.418;2023-01-01T15:15:39;484.33;;;436.02;;
12114;SDS011;6121;49.810;6.418;2023-01-01T15:18:33;490.17;;;441.55;;
12114;SDS011;6121;49.810;6.418;2023-01-01T15:21:43;516.95;;;468.08;;
12114;SDS011;6121;49.810;6.418;2023-01-01T15:24:03;532.33;;;482.30;;
12114;SDS011;6121;49.810;6.418;2023-01-01T15:26:35;516.65;;;468.02;;
12114;SDS011;6121;49.810;6.418;2023-01-01T15:29:16;514.20;;;465.73;;
12114;SDS011;6121;49.810;6.418;2023-01-01T15:31:52;530.03;;;479.05;;
12114;SDS011;6121;49.810;6.418;2023-01-01T15:34:24;494.17;;;444.92;;
12114;SDS011;6121;49.810;6.418;2023-01-01T15:36:54;456.60;;;409.83;;
12114;SDS011;6121;49.810;6.418;2023-01-01T15:39:29;458.08;;;410.23;;
12114;SDS011;6121;49.810;6.418;2023-01-01T15:41:56;484.70;;;434.52;;
12114;SDS011;6121;49.810;6.418;2023-01-01T15:44:28;446.87;;;399.67;;
12114;SDS011;6121;49.810;6.418;2023-01-01T15:47:31;455.45;;;408.00;;
12114;SDS011;6121;49.810;6.418;2023-01-01T15:50:05;449.27;;;402.85;;
12114;SDS011;6121;49.810;6.418;2023-01-01T15:52:32;458.65;;;410.95;;
12114;SDS011;6121;49.810;6.418;2023-01-01T15:55:00;447.52;;;400.83;;
12114;SDS011;6121;49.810;6.418;2023-01-01T15:57:26;455.15;;;407.73;;
12114;SDS011;6121;49.810;6.418;2023-01-01T15:59:52;451.33;;;404.50;;
12114;SDS011;6121;49.810;6.418;2023-01-01T16:02:20;473.77;;;424.73;;
12114;SDS011;6121;49.810;6.418;2023-01-01T16:04:54;462.67;;;415.27;;
12114;SDS011;6121;49.810;6.418;2023-01-01T16:07:20;451.35;;;403.70;;
12114;SDS011;6121;49.810;6.418;2023-01-01T16:09:51;456.75;;;409.30;;
12114;SDS011;6121;49.810;6.418;2023-01-01T16:12:17;452.90;;;404.25;;
12114;SDS011;6121;49.810;6.418;2023-01-01T16:14:44;430.08;;;384.08;;
12114;SDS011;6121;49.810;6.418;2023-01-01T16:17:19;460.63;;;412.63;;
12114;SDS011;6121;49.810;6.418;2023-01-01T16:19:45;435.73;;;389.70;;